createdAt,value
2019-02-07T00:00:26.723Z,5.91
2019-02-07T00:01:34.019Z,5.70
2019-02-07T00:02:40.059Z,5.51
2019-02-07T00:03:47.038Z,5.36
2019-02-07T00:04:53.060Z,5.23
2019-02-07T00:06:00.129Z,5.29
2019-02-07T00:07:06.590Z,5.58
2019-02-07T00:08:13.159Z,5.66
2019-02-07T00:09:20.197Z,5.58
2019-02-07T00:10:26.775Z,5.46
2019-02-07T00:11:33.799Z,5.27
2019-02-07T00:12:40.323Z,5.23
2019-02-07T00:13:46.230Z,5.54
2019-02-07T00:14:52.015Z,5.64
2019-02-07T00:15:58.407Z,5.56
2019-02-07T00:17:04.200Z,5.40
2019-02-07T00:18:11.237Z,5.24
2019-02-07T00:19:18.378Z,5.22
2019-02-07T00:20:25.618Z,5.50
2019-02-07T00:21:31.784Z,5.61
2019-02-07T00:22:39.317Z,5.54
2019-02-07T00:23:45.206Z,5.40
2019-02-07T00:24:51.567Z,5.24
2019-02-07T00:25:58.086Z,5.23
2019-02-07T00:27:04.283Z,5.57
2019-02-07T00:28:10.714Z,6.05
2019-02-07T00:29:17.624Z,6.67
2019-02-07T00:30:24.423Z,7.26
2019-02-07T00:31:31.274Z,7.79
2019-02-07T00:32:39.015Z,8.16
2019-02-07T00:33:44.982Z,8.13
2019-02-07T00:34:52.174Z,7.86
2019-02-07T00:35:58.655Z,7.59
2019-02-07T00:37:04.709Z,7.29
2019-02-07T00:38:14.985Z,6.96
2019-02-07T00:39:21.614Z,6.69
2019-02-07T00:40:28.187Z,6.45
2019-02-07T00:41:34.396Z,6.23
2019-02-07T00:42:42.172Z,6.02
2019-02-07T00:43:48.465Z,5.77
2019-02-07T00:44:55.267Z,5.54
2019-02-07T00:46:03.215Z,5.32
2019-02-07T00:47:09.754Z,5.18
2019-02-07T00:48:17.718Z,5.41
2019-02-07T00:49:24.366Z,5.92
2019-02-07T00:50:31.335Z,6.59
2019-02-07T00:51:38.304Z,7.27
2019-02-07T00:52:44.907Z,7.86
2019-02-07T00:53:51.855Z,8.22
2019-02-07T00:54:57.688Z,8.21
2019-02-07T00:56:03.939Z,7.93
2019-02-07T00:57:10.498Z,7.59
2019-02-07T00:58:16.358Z,7.27
2019-02-07T00:59:23.029Z,6.95
2019-02-07T01:00:31.830Z,6.65
2019-02-07T01:01:37.697Z,6.37
2019-02-07T01:02:43.919Z,6.14
2019-02-07T01:03:50.087Z,5.91
2019-02-07T01:04:56.025Z,5.68
2019-02-07T01:06:02.917Z,5.43
2019-02-07T01:07:10.178Z,5.27
2019-02-07T01:08:17.927Z,5.20
2019-02-07T01:09:24.559Z,5.51
2019-02-07T01:10:32.715Z,5.66
2019-02-07T01:11:38.258Z,5.54
2019-02-07T01:12:45.178Z,5.36
2019-02-07T01:13:52.154Z,5.19
2019-02-07T01:15:02.159Z,5.34
2019-02-07T01:16:06.875Z,5.66
2019-02-07T01:17:13.875Z,5.67
2019-02-07T01:18:20.070Z,5.56
2019-02-07T01:19:27.933Z,5.37
2019-02-07T01:20:35.115Z,5.16
2019-02-07T01:21:40.895Z,5.36
2019-02-07T01:22:46.783Z,5.63
2019-02-07T01:23:55.341Z,5.66
2019-02-07T01:25:01.691Z,5.49
2019-02-07T01:26:08.449Z,5.30
2019-02-07T01:27:15.538Z,5.19
2019-02-07T01:28:23.066Z,5.49
2019-02-07T01:29:29.389Z,6.01
2019-02-07T01:30:37.168Z,6.57
2019-02-07T01:31:43.811Z,7.17
2019-02-07T01:32:50.611Z,7.69
2019-02-07T01:33:56.961Z,8.00
2019-02-07T01:35:02.682Z,8.00
2019-02-07T01:36:10.029Z,7.76
2019-02-07T01:37:15.806Z,7.47
2019-02-07T01:38:22.158Z,7.10
2019-02-07T01:39:29.159Z,6.81
2019-02-07T01:40:35.070Z,6.48
2019-02-07T01:41:41.929Z,6.22
2019-02-07T01:42:48.158Z,5.89
2019-02-07T01:43:54.531Z,5.61
2019-02-07T01:45:01.173Z,5.40
2019-02-07T01:46:08.868Z,5.22
2019-02-07T01:47:14.644Z,5.26
2019-02-07T01:48:21.983Z,5.60
2019-02-07T01:49:27.913Z,5.67
2019-02-07T01:50:34.120Z,5.53
2019-02-07T01:51:40.073Z,5.32
2019-02-07T01:52:46.930Z,5.18
2019-02-07T01:53:52.850Z,5.36
2019-02-07T01:55:00.630Z,5.63
2019-02-07T01:56:08.542Z,5.66
2019-02-07T01:57:14.374Z,5.50
2019-02-07T01:58:21.564Z,5.33
2019-02-07T01:59:29.435Z,5.16
2019-02-07T02:00:35.785Z,5.43
2019-02-07T02:01:42.103Z,5.89
2019-02-07T02:02:48.389Z,6.48
2019-02-07T02:03:54.662Z,7.09
2019-02-07T02:05:01.383Z,7.57
2019-02-07T02:06:07.571Z,7.89
2019-02-07T02:07:14.052Z,7.88
2019-02-07T02:08:20.502Z,7.63
2019-02-07T02:09:26.538Z,7.34
2019-02-07T02:10:32.983Z,7.04
2019-02-07T02:11:40.095Z,6.72
2019-02-07T02:12:46.335Z,6.48
2019-02-07T02:13:53.380Z,6.26
2019-02-07T02:14:59.809Z,6.01
2019-02-07T02:16:06.079Z,5.81
2019-02-07T02:17:11.973Z,5.54
2019-02-07T02:18:19.576Z,5.34
2019-02-07T02:19:25.999Z,5.16
2019-02-07T02:20:34.089Z,5.39
2019-02-07T02:21:41.280Z,5.61
2019-02-07T02:22:48.232Z,5.56
2019-02-07T02:23:54.266Z,5.40
2019-02-07T02:25:00.402Z,5.20
2019-02-07T02:26:06.439Z,5.23
2019-02-07T02:27:13.398Z,5.54
2019-02-07T02:28:20.982Z,6.03
2019-02-07T02:29:27.681Z,6.67
2019-02-07T02:30:36.933Z,7.26
2019-02-07T02:31:42.964Z,7.81
2019-02-07T02:32:49.790Z,8.14
2019-02-07T02:33:56.848Z,8.07
2019-02-07T02:35:02.551Z,7.83
2019-02-07T02:36:08.941Z,7.51
2019-02-07T02:37:17.170Z,7.14
2019-02-07T02:38:22.965Z,6.84
2019-02-07T02:39:29.571Z,6.54
2019-02-07T02:40:36.757Z,6.26
2019-02-07T02:41:42.921Z,6.01
2019-02-07T02:42:49.821Z,5.77
2019-02-07T02:43:57.330Z,5.53
2019-02-07T02:45:03.000Z,5.32
2019-02-07T02:46:09.931Z,5.18
2019-02-07T02:47:16.318Z,5.44
2019-02-07T02:48:23.529Z,5.95
2019-02-07T02:49:30.091Z,6.58
2019-02-07T02:50:36.191Z,7.23
2019-02-07T02:51:42.072Z,7.82
2019-02-07T02:52:49.321Z,8.13
2019-02-07T02:53:57.330Z,8.13
2019-02-07T02:55:05.292Z,7.83
2019-02-07T02:56:11.941Z,7.48
2019-02-07T02:57:18.167Z,7.14
2019-02-07T02:58:24.590Z,6.78
2019-02-07T02:59:31.251Z,6.51
2019-02-07T03:00:46.021Z,6.20
2019-02-07T03:02:08.956Z,5.92
2019-02-07T03:03:23.677Z,5.61
2019-02-07T03:04:31.215Z,5.37
2019-02-07T03:05:42.884Z,5.19
2019-02-07T03:06:54.189Z,5.33
2019-02-07T03:08:10.638Z,5.58
2019-02-07T03:09:25.082Z,5.61
2019-02-07T03:10:41.893Z,5.43
2019-02-07T03:11:56.637Z,5.22
2019-02-07T03:13:07.720Z,5.29
2019-02-07T03:14:17.978Z,5.60
2019-02-07T03:15:49.330Z,5.68
2019-02-07T03:16:52.778Z,5.44
2019-02-07T03:18:03.444Z,5.23
2019-02-07T03:19:09.411Z,5.20
2019-02-07T03:20:20.705Z,5.51
2019-02-07T03:21:35.956Z,5.99
2019-02-07T03:22:44.133Z,6.65
2019-02-07T03:23:52.041Z,7.21
2019-02-07T03:24:59.882Z,7.78
2019-02-07T03:26:23.240Z,8.09
2019-02-07T03:27:29.178Z,7.99
2019-02-07T03:28:42.876Z,7.70
2019-02-07T03:29:50.378Z,7.34
2019-02-07T03:30:57.551Z,6.99
2019-02-07T03:32:21.856Z,6.64
2019-02-07T03:33:45.753Z,6.23
2019-02-07T03:34:53.650Z,5.94
2019-02-07T03:36:11.042Z,5.68
2019-02-07T03:37:21.357Z,5.41
2019-02-07T03:38:47.113Z,5.20
2019-02-07T03:40:01.208Z,5.33
2019-02-07T03:41:28.055Z,5.66
2019-02-07T03:42:45.486Z,5.54
2019-02-07T03:44:01.860Z,5.34
2019-02-07T03:45:25.314Z,5.15
2019-02-07T03:46:44.999Z,5.53
2019-02-07T03:48:10.689Z,6.16
2019-02-07T03:49:17.964Z,6.93
2019-02-07T03:50:25.249Z,7.48
2019-02-07T03:51:34.570Z,7.85
2019-02-07T03:52:44.621Z,7.79
2019-02-07T03:53:58.247Z,7.49
2019-02-07T03:55:20.973Z,7.14
2019-02-07T03:56:43.637Z,6.72
2019-02-07T03:58:07.862Z,6.33
2019-02-07T03:59:19.522Z,5.98
2019-02-07T04:00:30.493Z,5.68
2019-02-07T04:01:45.694Z,5.43
2019-02-07T04:02:53.080Z,5.18
2019-02-07T04:04:06.589Z,5.29
2019-02-07T04:05:21.459Z,5.68
2019-02-07T04:06:29.146Z,5.70
2019-02-07T04:07:46.339Z,5.54
2019-02-07T04:08:53.632Z,5.26
2019-02-07T04:10:17.170Z,5.15
2019-02-07T04:11:33.478Z,5.54
2019-02-07T04:12:54.137Z,6.22
2019-02-07T04:14:02.039Z,6.86
2019-02-07T04:15:13.944Z,7.40
2019-02-07T04:16:21.334Z,7.76
2019-02-07T04:17:45.063Z,7.70
2019-02-07T04:18:58.714Z,7.31
2019-02-07T04:20:14.580Z,6.95
2019-02-07T04:21:32.321Z,6.57
2019-02-07T04:22:43.195Z,6.20
2019-02-07T04:23:49.757Z,5.89
2019-02-07T04:25:10.619Z,5.66
2019-02-07T04:26:31.629Z,5.33
2019-02-07T04:27:45.441Z,5.12
2019-02-07T04:29:10.550Z,5.44
2019-02-07T04:30:16.898Z,6.09
2019-02-07T04:31:24.106Z,6.74
2019-02-07T04:32:34.549Z,7.29
2019-02-07T04:33:58.023Z,7.69
2019-02-07T04:35:06.299Z,7.58
2019-02-07T04:36:17.729Z,7.23
2019-02-07T04:37:26.233Z,6.88
2019-02-07T04:38:31.594Z,6.51
2019-02-07T04:39:39.537Z,6.20
2019-02-07T04:40:47.717Z,5.85
2019-02-07T04:42:11.064Z,5.53
2019-02-07T04:43:17.751Z,5.22
2019-02-07T04:44:25.426Z,5.20
2019-02-07T04:45:36.336Z,5.51
2019-02-07T04:46:54.272Z,5.63
2019-02-07T04:48:04.640Z,5.43
2019-02-07T04:49:18.583Z,5.16
2019-02-07T04:50:33.423Z,5.32
2019-02-07T04:51:45.521Z,5.61
2019-02-07T04:53:12.440Z,5.56
2019-02-07T04:54:32.532Z,5.30
2019-02-07T04:55:58.151Z,5.18
2019-02-07T04:57:18.710Z,5.63
2019-02-07T04:58:43.596Z,6.23
2019-02-07T05:00:03.060Z,6.89
2019-02-07T05:01:26.511Z,7.47
2019-02-07T05:02:50.802Z,7.76
2019-02-07T05:04:14.552Z,7.55
2019-02-07T05:05:38.119Z,7.10
2019-02-07T05:06:45.383Z,6.67
2019-02-07T05:07:52.846Z,6.31
2019-02-07T05:09:16.733Z,5.98
2019-02-07T05:10:31.596Z,5.58
2019-02-07T05:11:45.878Z,5.27
2019-02-07T05:13:03.044Z,5.15
2019-02-07T05:14:27.239Z,5.49
2019-02-07T05:15:38.163Z,5.57
2019-02-07T05:16:48.227Z,5.36
2019-02-07T05:17:56.278Z,5.15
2019-02-07T05:19:19.983Z,5.32
2019-02-07T05:20:31.063Z,5.64
2019-02-07T05:21:38.594Z,5.54
2019-02-07T05:22:47.119Z,5.32
2019-02-07T05:24:07.417Z,5.09
2019-02-07T05:25:31.786Z,5.44
2019-02-07T05:26:43.580Z,6.03
2019-02-07T05:28:08.668Z,6.55
2019-02-07T05:29:17.089Z,7.06
2019-02-07T05:30:27.387Z,7.38
2019-02-07T05:31:34.922Z,7.27
2019-02-07T05:32:44.608Z,6.98
2019-02-07T05:33:58.673Z,6.58
2019-02-07T05:35:25.700Z,6.22
2019-02-07T05:36:42.509Z,5.78
2019-02-07T05:38:07.501Z,5.43
2019-02-07T05:39:18.330Z,5.09
2019-02-07T05:40:26.608Z,5.33
2019-02-07T05:41:51.147Z,5.63
2019-02-07T05:43:13.790Z,5.57
2019-02-07T05:44:24.753Z,5.27
2019-02-07T05:45:33.241Z,5.16
2019-02-07T05:46:57.131Z,5.43
2019-02-07T05:48:22.450Z,5.53
2019-02-07T05:49:30.639Z,5.27
2019-02-07T05:50:38.182Z,5.13
2019-02-07T05:51:55.710Z,5.40
2019-02-07T05:53:01.370Z,5.58
2019-02-07T05:54:12.242Z,5.43
2019-02-07T05:55:23.116Z,5.20
2019-02-07T05:56:33.842Z,5.23
2019-02-07T05:57:51.250Z,5.51
2019-02-07T05:59:07.444Z,5.50
2019-02-07T06:00:34.782Z,5.26
2019-02-07T06:01:54.947Z,5.16
2019-02-07T06:03:03.411Z,5.49
2019-02-07T06:04:27.640Z,5.56
2019-02-07T06:05:35.233Z,5.32
2019-02-07T06:06:47.386Z,5.11
2019-02-07T06:08:10.559Z,5.37
2019-02-07T06:09:18.279Z,5.58
2019-02-07T06:10:42.213Z,5.44
2019-02-07T06:12:09.165Z,5.16
2019-02-07T06:13:34.055Z,5.32
2019-02-07T06:14:42.833Z,5.57
2019-02-07T06:15:57.121Z,5.47
2019-02-07T06:17:17.955Z,5.19
2019-02-07T06:18:45.969Z,5.19
2019-02-07T06:20:09.712Z,5.57
2019-02-07T06:21:26.515Z,5.51
2019-02-07T06:22:43.987Z,5.20
2019-02-07T06:23:52.350Z,5.13
2019-02-07T06:25:08.541Z,5.44
2019-02-07T06:26:19.770Z,5.51
2019-02-07T06:27:27.588Z,5.32
2019-02-07T06:28:35.372Z,5.12
2019-02-07T06:29:46.140Z,5.32
2019-02-07T06:30:54.155Z,5.56
2019-02-07T06:32:01.806Z,5.49
2019-02-07T06:33:25.688Z,5.26
2019-02-07T06:34:37.257Z,5.12
2019-02-07T06:35:48.116Z,5.44
2019-02-07T06:36:56.390Z,5.57
2019-02-07T06:38:04.010Z,5.44
2019-02-07T06:39:31.018Z,5.19
2019-02-07T06:40:51.935Z,5.27
2019-02-07T06:42:09.580Z,5.60
2019-02-07T06:43:23.593Z,5.49
2019-02-07T06:44:38.354Z,5.20
2019-02-07T06:45:49.094Z,5.16
2019-02-07T06:46:57.917Z,5.47
2019-02-07T06:48:08.275Z,5.49
2019-02-07T06:49:22.505Z,5.29
2019-02-07T06:50:35.827Z,5.12
2019-02-07T06:51:50.786Z,5.37
2019-02-07T06:52:58.991Z,5.50
2019-02-07T06:54:26.724Z,5.37
2019-02-07T06:55:39.877Z,5.13
2019-02-07T06:57:17.029Z,5.33
2019-02-07T06:58:26.657Z,5.51
2019-02-07T06:59:36.878Z,5.32
2019-02-07T07:01:01.757Z,5.13
2019-02-07T07:02:23.953Z,5.43
2019-02-07T07:03:39.653Z,5.61
2019-02-07T07:04:52.287Z,5.41
2019-02-07T07:06:11.756Z,5.15
2019-02-07T07:07:36.474Z,5.29
2019-02-07T07:08:56.346Z,5.61
2019-02-07T07:10:28.934Z,5.49
2019-02-07T07:11:41.006Z,5.13
2019-02-07T07:12:51.654Z,5.29
2019-02-07T07:13:58.938Z,5.51
2019-02-07T07:15:31.093Z,5.47
2019-02-07T07:16:43.195Z,5.16
2019-02-07T07:17:52.915Z,5.27
2019-02-07T07:19:03.901Z,5.57
2019-02-07T07:20:18.214Z,5.51
2019-02-07T07:21:34.744Z,5.29
2019-02-07T07:22:45.993Z,5.15
2019-02-07T07:23:58.415Z,5.47
2019-02-07T07:25:28.302Z,5.56
2019-02-07T07:26:34.954Z,5.30
2019-02-07T07:28:00.855Z,5.12
2019-02-07T07:29:09.474Z,5.46
2019-02-07T07:30:34.036Z,5.54
2019-02-07T07:32:01.494Z,5.30
2019-02-07T07:33:25.548Z,5.15
2019-02-07T07:34:35.424Z,5.50
2019-02-07T07:35:44.446Z,5.53
2019-02-07T07:36:52.315Z,5.33
2019-02-07T07:38:00.309Z,5.11
2019-02-07T07:39:25.796Z,5.29
2019-02-07T07:40:51.530Z,5.57
2019-02-07T07:42:12.435Z,5.44
2019-02-07T07:43:20.334Z,5.11
2019-02-07T07:44:43.874Z,5.22
2019-02-07T07:46:15.094Z,5.58
2019-02-07T07:48:01.230Z,5.41
2019-02-07T07:49:19.838Z,5.11
2019-02-07T07:50:37.275Z,5.40
2019-02-07T07:51:43.714Z,5.60
2019-02-07T07:52:57.556Z,5.51
2019-02-07T07:54:12.474Z,5.24
2019-02-07T07:55:25.651Z,5.15
2019-02-07T07:56:52.237Z,5.43
2019-02-07T07:58:03.394Z,5.44
2019-02-07T07:59:15.401Z,5.23
2019-02-07T08:00:34.056Z,5.19
2019-02-07T08:01:39.984Z,5.51
2019-02-07T08:02:54.834Z,5.53
2019-02-07T08:04:07.658Z,5.32
2019-02-07T08:05:22.591Z,5.13
2019-02-07T08:06:36.534Z,5.41
2019-02-07T08:08:00.931Z,5.56
2019-02-07T08:09:15.774Z,5.37
2019-02-07T08:10:27.553Z,5.13
2019-02-07T08:11:37.754Z,5.33
2019-02-07T08:12:52.969Z,5.58
2019-02-07T08:14:08.016Z,5.50
2019-02-07T08:15:29.134Z,5.24
2019-02-07T08:16:38.343Z,5.19
2019-02-07T08:17:52.689Z,5.51
2019-02-07T08:19:06.742Z,5.60
2019-02-07T08:20:30.593Z,5.39
2019-02-07T08:21:56.903Z,5.12
2019-02-07T08:23:04.147Z,5.43
2019-02-07T08:24:27.354Z,5.61
2019-02-07T08:25:42.534Z,5.46
2019-02-07T08:26:50.475Z,5.22
2019-02-07T08:27:59.717Z,5.18
2019-02-07T08:29:21.531Z,5.53
2019-02-07T08:30:36.420Z,5.57
2019-02-07T08:31:46.955Z,5.36
2019-02-07T08:32:59.996Z,5.18
2019-02-07T08:34:26.454Z,5.34
2019-02-07T08:35:33.925Z,5.60
2019-02-07T08:36:50.019Z,5.56
2019-02-07T08:37:58.278Z,5.32
2019-02-07T08:39:11.135Z,5.15
2019-02-07T08:40:28.860Z,5.41
2019-02-07T08:41:52.855Z,5.54
2019-02-07T08:42:58.475Z,5.43
2019-02-07T08:44:03.962Z,5.20
2019-02-07T08:45:13.373Z,5.23
2019-02-07T08:46:29.544Z,5.51
2019-02-07T08:47:58.571Z,5.54
2019-02-07T08:49:07.449Z,5.30
2019-02-07T08:50:25.674Z,5.19
2019-02-07T08:51:36.141Z,5.44
2019-02-07T08:52:54.016Z,5.51
2019-02-07T08:54:00.802Z,5.40
2019-02-07T08:55:08.502Z,5.22
2019-02-07T08:56:32.556Z,5.27
2019-02-07T08:57:40.699Z,5.58
2019-02-07T08:58:46.514Z,5.58
2019-02-07T09:00:10.174Z,5.43
2019-02-07T09:01:38.055Z,5.19
2019-02-07T09:03:03.333Z,5.36
2019-02-07T09:04:31.847Z,5.66
2019-02-07T09:05:53.450Z,5.60
2019-02-07T09:07:17.553Z,5.34
2019-02-07T09:08:28.738Z,5.15
2019-02-07T09:09:41.434Z,5.44
2019-02-07T09:11:03.245Z,5.64
2019-02-07T09:12:16.204Z,5.53
2019-02-07T09:13:39.754Z,5.36
2019-02-07T09:14:53.168Z,5.18
2019-02-07T09:16:15.473Z,5.44
2019-02-07T09:17:20.916Z,5.66
2019-02-07T09:18:38.330Z,5.57
2019-02-07T09:19:51.896Z,5.33
2019-02-07T09:21:14.284Z,5.15
2019-02-07T09:22:23.810Z,5.41
2019-02-07T09:23:35.926Z,5.61
2019-02-07T09:24:59.694Z,5.58
2019-02-07T09:26:16.247Z,5.39
2019-02-07T09:27:24.741Z,5.22
2019-02-07T09:28:40.734Z,5.32
2019-02-07T09:29:51.415Z,5.61
2019-02-07T09:31:04.767Z,5.58
2019-02-07T09:32:24.493Z,5.49
2019-02-07T09:33:44.895Z,5.27
2019-02-07T09:34:58.015Z,5.20
2019-02-07T09:36:24.155Z,5.49
2019-02-07T09:37:30.738Z,5.58
2019-02-07T09:38:41.034Z,5.47
2019-02-07T09:40:04.599Z,5.37
2019-02-07T09:41:21.946Z,5.22
2019-02-07T09:42:42.712Z,5.44
2019-02-07T09:43:53.874Z,5.54
2019-02-07T09:45:05.162Z,5.46
2019-02-07T09:46:25.914Z,5.32
2019-02-07T09:47:35.728Z,5.18
2019-02-07T09:48:48.694Z,5.44
2019-02-07T09:50:08.234Z,5.60
2019-02-07T09:51:23.416Z,5.54
2019-02-07T09:52:36.835Z,5.40
2019-02-07T09:54:02.436Z,5.29
2019-02-07T09:55:13.307Z,5.27
2019-02-07T09:56:22.114Z,5.56
2019-02-07T09:57:30.918Z,5.61
2019-02-07T09:58:43.489Z,5.57
2019-02-07T10:00:06.695Z,5.47
2019-02-07T10:01:20.187Z,5.34
2019-02-07T10:02:38.107Z,5.24
2019-02-07T10:03:52.535Z,5.27
2019-02-07T10:05:09.364Z,5.50
2019-02-07T10:06:17.202Z,5.58
2019-02-07T10:07:42.852Z,5.57
2019-02-07T10:08:53.414Z,5.50
2019-02-07T10:10:13.914Z,5.44
2019-02-07T10:11:36.254Z,5.43
2019-02-07T10:12:57.188Z,5.39
2019-02-07T10:14:13.814Z,5.40
2019-02-07T10:15:39.238Z,5.37
2019-02-07T10:17:01.534Z,5.39
2019-02-07T10:18:32.787Z,5.37
2019-02-07T10:19:36.268Z,5.41
2019-02-07T10:20:47.612Z,5.41
2019-02-07T10:22:10.305Z,5.41
2019-02-07T10:23:23.610Z,5.44
2019-02-07T10:24:47.694Z,5.44
2019-02-07T10:26:11.657Z,5.49
2019-02-07T10:27:22.194Z,5.46
2019-02-07T10:28:45.755Z,5.49
2019-02-07T10:29:54.040Z,5.50
2019-02-07T10:31:17.703Z,5.56
2019-02-07T10:32:27.749Z,5.57
2019-02-07T10:33:33.307Z,5.58
2019-02-07T10:34:44.445Z,5.58
2019-02-07T10:36:01.074Z,5.63
2019-02-07T10:37:09.894Z,5.61
2019-02-07T10:38:17.888Z,5.64
2019-02-07T10:39:35.902Z,5.66
2019-02-07T10:40:52.673Z,5.64
2019-02-07T10:42:16.974Z,5.63
2019-02-07T10:43:40.094Z,5.63
2019-02-07T10:44:49.014Z,5.58
2019-02-07T10:46:08.293Z,5.54
2019-02-07T10:47:33.494Z,5.51
2019-02-07T10:48:44.652Z,5.49
2019-02-07T10:49:59.445Z,5.49
2019-02-07T10:51:06.562Z,5.47
2019-02-07T10:52:20.105Z,5.43
2019-02-07T10:53:33.730Z,5.40
2019-02-07T10:54:53.675Z,5.40
2019-02-07T10:56:17.862Z,5.37
2019-02-07T10:57:31.633Z,5.37
2019-02-07T10:58:37.054Z,5.34
2019-02-07T10:59:46.101Z,5.34
2019-02-07T11:01:00.515Z,5.29
2019-02-07T11:02:15.375Z,5.24
2019-02-07T11:03:31.333Z,5.27
2019-02-07T11:04:59.884Z,5.29
2019-02-07T11:06:27.259Z,5.29
2019-02-07T11:07:36.234Z,5.29
2019-02-07T11:08:52.290Z,5.30
2019-02-07T11:10:09.273Z,5.29
2019-02-07T11:11:18.814Z,5.30
2019-02-07T11:12:36.415Z,5.32
2019-02-07T11:13:47.791Z,5.30
2019-02-07T11:15:01.415Z,5.33
2019-02-07T11:16:18.715Z,5.32
2019-02-07T11:17:31.427Z,5.30
2019-02-07T11:18:55.723Z,5.33
2019-02-07T11:20:08.237Z,5.33
2019-02-07T11:21:16.794Z,5.33
2019-02-07T11:22:24.242Z,5.36
2019-02-07T11:23:34.327Z,5.37
2019-02-07T11:24:44.154Z,5.37
2019-02-07T11:26:03.634Z,5.37
2019-02-07T11:27:11.673Z,5.37
2019-02-07T11:28:19.465Z,5.37
2019-02-07T11:29:28.634Z,5.37
2019-02-07T11:30:39.902Z,5.37
2019-02-07T11:32:03.575Z,5.36
2019-02-07T11:33:17.363Z,5.37
2019-02-07T11:34:30.842Z,5.39
2019-02-07T11:35:57.324Z,5.39
2019-02-07T11:37:11.467Z,5.34
2019-02-07T11:38:20.173Z,5.34
2019-02-07T11:39:29.781Z,5.36
2019-02-07T11:40:41.290Z,5.39
2019-02-07T11:41:55.434Z,5.36
2019-02-07T11:43:06.717Z,5.40
2019-02-07T11:44:15.206Z,5.36
2019-02-07T11:45:22.694Z,5.37
2019-02-07T11:46:48.778Z,5.40
2019-02-07T11:47:59.215Z,5.40
2019-02-07T11:49:19.014Z,5.41
2019-02-07T11:50:32.854Z,5.40
2019-02-07T11:51:43.814Z,5.39
2019-02-07T11:53:09.547Z,5.36
2019-02-07T11:54:24.536Z,5.39
2019-02-07T11:55:32.334Z,5.41
2019-02-07T11:56:55.963Z,5.46
2019-02-07T11:58:10.315Z,5.44
2019-02-07T11:59:35.914Z,5.47
2019-02-07T12:01:02.934Z,5.50
2019-02-07T12:02:19.927Z,5.54
2019-02-07T12:03:33.873Z,5.58
2019-02-07T12:04:42.559Z,5.58
2019-02-07T12:05:51.114Z,5.58
2019-02-07T12:07:01.227Z,5.61
2019-02-07T12:08:26.237Z,5.63
2019-02-07T12:09:34.754Z,5.66
2019-02-07T12:10:49.174Z,5.68
2019-02-07T12:12:05.862Z,5.68
2019-02-07T12:13:17.274Z,5.70
2019-02-07T12:14:36.415Z,5.70
2019-02-07T12:15:46.673Z,5.68
2019-02-07T12:16:57.334Z,5.74
2019-02-07T12:18:21.277Z,5.77
2019-02-07T12:19:34.574Z,5.77
2019-02-07T12:20:55.293Z,5.79
2019-02-07T12:22:18.956Z,5.84
2019-02-07T12:23:30.442Z,5.88
2019-02-07T12:24:47.515Z,5.94
2019-02-07T12:25:56.034Z,5.95
2019-02-07T12:27:14.277Z,5.98
2019-02-07T12:28:31.995Z,6.01
2019-02-07T12:29:46.767Z,6.02
2019-02-07T12:31:11.194Z,6.06
2019-02-07T12:32:19.666Z,6.06
2019-02-07T12:33:43.913Z,6.03
2019-02-07T12:34:51.874Z,6.09
2019-02-07T12:36:00.713Z,6.10
2019-02-07T12:37:17.746Z,6.09
2019-02-07T12:38:40.494Z,6.13
2019-02-07T12:40:04.210Z,6.14
2019-02-07T12:41:15.887Z,6.19
2019-02-07T12:42:28.894Z,6.24
2019-02-07T12:43:39.084Z,6.26
2019-02-07T12:45:01.268Z,6.30
2019-02-07T12:46:09.832Z,6.30
2019-02-07T12:47:19.996Z,6.30
2019-02-07T12:48:36.417Z,6.31
2019-02-07T12:50:00.031Z,6.29
2019-02-07T12:51:20.675Z,6.27
2019-02-07T12:52:44.235Z,6.27
2019-02-07T12:54:02.540Z,6.29
2019-02-07T12:55:11.995Z,6.24
2019-02-07T12:56:22.855Z,6.19
2019-02-07T12:57:48.775Z,6.16
2019-02-07T12:58:57.376Z,6.16
2019-02-07T13:00:24.053Z,6.13
2019-02-07T13:01:48.715Z,6.09
2019-02-07T13:03:01.676Z,6.08
2019-02-07T13:04:08.649Z,6.08
2019-02-07T13:05:35.615Z,6.06
2019-02-07T13:06:57.110Z,6.01
2019-02-07T13:08:03.876Z,5.99
2019-02-07T13:09:10.736Z,5.94
2019-02-07T13:10:27.417Z,5.92
2019-02-07T13:11:37.723Z,5.88
2019-02-07T13:13:00.851Z,5.86
2019-02-07T13:14:08.306Z,5.81
2019-02-07T13:15:16.665Z,5.75
2019-02-07T13:16:40.195Z,5.68
2019-02-07T13:17:52.077Z,5.63
2019-02-07T13:19:12.261Z,5.60
2019-02-07T13:20:33.172Z,5.53
2019-02-07T13:21:40.435Z,5.47
2019-02-07T13:22:45.970Z,5.43
2019-02-07T13:23:59.601Z,5.39
2019-02-07T13:25:13.122Z,5.30
2019-02-07T13:26:19.451Z,5.24
2019-02-07T13:27:45.179Z,5.27
2019-02-07T13:28:58.819Z,5.36
2019-02-07T13:30:30.936Z,5.36
2019-02-07T13:31:40.794Z,5.32
2019-02-07T13:33:04.021Z,5.29
2019-02-07T13:34:18.109Z,5.26
2019-02-07T13:35:42.075Z,5.29
2019-02-07T13:36:48.108Z,5.34
2019-02-07T13:38:11.992Z,5.34
2019-02-07T13:39:33.395Z,5.34
2019-02-07T13:40:54.029Z,5.33
2019-02-07T13:42:08.515Z,5.29
2019-02-07T13:43:22.652Z,5.27
2019-02-07T13:44:29.928Z,5.26
2019-02-07T13:45:44.236Z,5.27
2019-02-07T13:47:03.716Z,5.32
2019-02-07T13:48:14.995Z,5.26
2019-02-07T13:49:20.376Z,5.24
2019-02-07T13:50:27.696Z,5.29
2019-02-07T13:51:33.457Z,5.30
2019-02-07T13:52:47.068Z,5.33
2019-02-07T13:53:59.546Z,5.30
2019-02-07T13:55:24.775Z,5.24
2019-02-07T13:56:33.117Z,5.32
2019-02-07T13:57:40.777Z,5.44
2019-02-07T13:59:04.954Z,5.46
2019-02-07T14:00:20.257Z,5.41
2019-02-07T14:01:31.469Z,5.40
2019-02-07T14:02:55.436Z,5.34
2019-02-07T14:04:05.998Z,5.33
2019-02-07T14:05:13.870Z,5.29
2019-02-07T14:06:27.588Z,5.26
2019-02-07T14:07:51.652Z,5.26
2019-02-07T14:08:59.176Z,5.30
2019-02-07T14:10:19.989Z,5.27
2019-02-07T14:11:27.715Z,5.24
2019-02-07T14:12:35.150Z,5.29
2019-02-07T14:13:58.948Z,5.37
2019-02-07T14:15:10.155Z,5.36
2019-02-07T14:16:33.608Z,5.32
2019-02-07T14:17:41.909Z,5.23
2019-02-07T14:18:47.428Z,5.34
2019-02-07T14:20:04.136Z,5.40
2019-02-07T14:21:14.356Z,5.36
2019-02-07T14:22:33.768Z,5.27
2019-02-07T14:23:51.668Z,5.26
2019-02-07T14:25:02.136Z,5.60
2019-02-07T14:26:13.136Z,6.17
2019-02-07T14:27:25.628Z,6.96
2019-02-07T14:28:39.849Z,7.74
2019-02-07T14:29:47.356Z,8.41
2019-02-07T14:31:01.536Z,8.89
2019-02-07T14:32:09.436Z,9.06
2019-02-07T14:33:26.944Z,8.90
2019-02-07T14:34:51.835Z,8.56
2019-02-07T14:36:08.430Z,8.16
2019-02-07T14:37:18.736Z,7.83
2019-02-07T14:38:29.990Z,7.54
2019-02-07T14:39:37.228Z,7.26
2019-02-07T14:40:50.335Z,7.04
2019-02-07T14:42:03.063Z,6.78
2019-02-07T14:43:12.046Z,6.54
2019-02-07T14:44:35.937Z,6.34
2019-02-07T14:45:46.195Z,6.09
2019-02-07T14:46:53.129Z,5.89
2019-02-07T14:47:58.818Z,5.68
2019-02-07T14:49:06.276Z,5.54
2019-02-07T14:50:14.818Z,5.41
2019-02-07T14:51:20.603Z,5.27
2019-02-07T14:52:27.472Z,5.24
2019-02-07T14:53:34.215Z,5.51
2019-02-07T14:54:45.475Z,5.66
2019-02-07T14:55:53.003Z,5.57
2019-02-07T14:56:59.155Z,5.43
2019-02-07T14:58:07.232Z,5.29
2019-02-07T14:59:13.508Z,5.20
2019-02-07T15:00:24.822Z,5.50
2019-02-07T15:01:33.269Z,5.95
2019-02-07T15:02:41.778Z,6.58
2019-02-07T15:03:50.484Z,7.30
2019-02-07T15:04:59.969Z,7.92
2019-02-07T15:06:11.864Z,8.35
2019-02-07T15:07:20.210Z,8.37
2019-02-07T15:08:29.155Z,8.10
2019-02-07T15:09:38.633Z,7.85
2019-02-07T15:10:47.723Z,7.55
2019-02-07T15:11:54.510Z,7.27
2019-02-07T15:13:06.222Z,7.03
2019-02-07T15:14:12.190Z,6.82
2019-02-07T15:15:26.870Z,6.58
2019-02-07T15:16:34.364Z,6.33
2019-02-07T15:17:39.874Z,6.12
2019-02-07T15:18:46.213Z,5.91
2019-02-07T15:19:52.026Z,5.75
2019-02-07T15:20:57.851Z,5.54
2019-02-07T15:22:03.607Z,5.36
2019-02-07T15:23:09.911Z,5.22
2019-02-07T15:24:16.643Z,5.26
2019-02-07T15:25:22.996Z,5.60
2019-02-07T15:26:29.010Z,5.70
2019-02-07T15:27:35.245Z,5.57
2019-02-07T15:28:42.050Z,5.44
2019-02-07T15:29:47.545Z,5.23
2019-02-07T15:30:54.042Z,5.22
2019-02-07T15:31:59.874Z,5.57
2019-02-07T15:33:06.158Z,6.10
2019-02-07T15:34:12.292Z,6.76
2019-02-07T15:35:22.781Z,7.38
2019-02-07T15:36:28.261Z,7.88
2019-02-07T15:37:35.206Z,8.06
2019-02-07T15:38:40.897Z,7.92
2019-02-07T15:39:46.995Z,7.70
2019-02-07T15:40:55.633Z,7.40
2019-02-07T15:42:01.679Z,7.13
2019-02-07T15:43:07.425Z,6.88
2019-02-07T15:44:13.066Z,6.61
2019-02-07T15:45:18.726Z,6.37
2019-02-07T15:46:24.259Z,6.16
2019-02-07T15:47:29.865Z,5.96
2019-02-07T15:48:35.404Z,5.77
2019-02-07T15:49:42.342Z,5.60
2019-02-07T15:50:48.028Z,5.44
2019-02-07T15:51:53.652Z,5.27
2019-02-07T15:53:00.767Z,5.19
2019-02-07T15:54:06.436Z,5.46
2019-02-07T15:55:12.638Z,5.56
2019-02-07T15:56:18.607Z,5.54
2019-02-07T15:57:25.927Z,5.37
2019-02-07T15:58:38.251Z,5.22
2019-02-07T15:59:46.240Z,5.30
2019-02-07T16:01:05.909Z,5.61
2019-02-07T16:02:13.622Z,5.66
2019-02-07T16:03:20.923Z,5.57
2019-02-07T16:04:27.872Z,5.39
2019-02-07T16:05:34.234Z,5.24
2019-02-07T16:06:39.911Z,5.23
2019-02-07T16:07:46.132Z,5.54
2019-02-07T16:08:52.528Z,5.67
2019-02-07T16:09:58.448Z,5.58